sensor_id;sensor_type;location;lat;lon;timestamp;pressure;altitude;pressure_sealevel;temperature;humidity
75699;BME280;64313;51.018;13.742;2023-02-26T00:00:13;99137.25;;;-0.15;83.45
75699;BME280;64313;51.018;13.742;2023-02-26T00:02:59;99140.41;;;-0.11;83.32
75699;BME280;64313;51.018;13.742;2023-02-26T00:05:25;99144.00;;;-0.12;83.63
75699;BME280;64313;51.018;13.742;2023-02-26T00:07:51;99144.81;;;-0.12;83.47
75699;BME280;64313;51.018;13.742;2023-02-26T00:10:17;99158.09;;;-0.13;83.79
75699;BME280;64313;51.018;13.742;2023-02-26T00:12:42;99156.28;;;-0.13;83.48
75699;BME280;64313;51.018;13.742;2023-02-26T00:15:10;99151.88;;;-0.12;83.78
75699;BME280;64313;51.018;13.742;2023-02-26T00:17:58;99164.63;;;-0.17;83.35
75699;BME280;64313;51.018;13.742;2023-02-26T00:20:25;99158.00;;;-0.22;83.53
75699;BME280;64313;51.018;13.742;2023-02-26T00:22:51;99167.09;;;-0.16;83.42
75699;BME280;64313;51.018;13.742;2023-02-26T00:25:16;99165.03;;;-0.12;83.53
75699;BME280;64313;51.018;13.742;2023-02-26T00:27:42;99166.66;;;-0.11;83.44
75699;BME280;64313;51.018;13.742;2023-02-26T00:30:09;99171.66;;;-0.18;83.01
75699;BME280;64313;51.018;13.742;2023-02-26T00:32:35;99174.97;;;-0.16;83.55
75699;BME280;64313;51.018;13.742;2023-02-26T00:35:04;99174.66;;;-0.13;83.39
75699;BME280;64313;51.018;13.742;2023-02-26T00:37:51;99175.94;;;-0.17;83.49
75699;BME280;64313;51.018;13.742;2023-02-26T00:40:37;99181.03;;;-0.15;83.45
75699;BME280;64313;51.018;13.742;2023-02-26T00:43:05;99182.31;;;-0.19;83.38
75699;BME280;64313;51.018;13.742;2023-02-26T00:45:31;99181.19;;;-0.17;83.68
75699;BME280;64313;51.018;13.742;2023-02-26T00:48:27;99183.66;;;-0.15;83.17
75699;BME280;64313;51.018;13.742;2023-02-26T00:51:29;99186.75;;;-0.20;82.93
75699;BME280;64313;51.018;13.742;2023-02-26T00:54:04;99185.63;;;-0.17;83.05
75699;BME280;64313;51.018;13.742;2023-02-26T00:56:33;99184.13;;;-0.20;83.08
75699;BME280;64313;51.018;13.742;2023-02-26T00:58:59;99188.53;;;-0.20;83.41
75699;BME280;64313;51.018;13.742;2023-02-26T01:01:24;99181.50;;;-0.20;83.39
75699;BME280;64313;51.018;13.742;2023-02-26T01:03:49;99185.25;;;-0.23;83.40
75699;BME280;64313;51.018;13.742;2023-02-26T01:06:17;99185.50;;;-0.26;83.69
75699;BME280;64313;51.018;13.742;2023-02-26T01:11:42;99188.00;;;-0.24;83.65
75699;BME280;64313;51.018;13.742;2023-02-26T01:14:08;99192.56;;;-0.26;83.79
75699;BME280;64313;51.018;13.742;2023-02-26T01:16:41;99197.69;;;-0.25;83.21
75699;BME280;64313;51.018;13.742;2023-02-26T01:21:44;99195.34;;;-0.28;83.77
75699;BME280;64313;51.018;13.742;2023-02-26T01:24:14;99192.56;;;-0.26;83.15
75699;BME280;64313;51.018;13.742;2023-02-26T01:26:41;99194.50;;;-0.28;83.30
75699;BME280;64313;51.018;13.742;2023-02-26T01:29:06;99202.94;;;-0.25;83.17
75699;BME280;64313;51.018;13.742;2023-02-26T01:31:39;99193.13;;;-0.32;83.53
75699;BME280;64313;51.018;13.742;2023-02-26T01:34:14;99196.88;;;-0.35;83.45
75699;BME280;64313;51.018;13.742;2023-02-26T01:36:55;99203.25;;;-0.37;83.75
75699;BME280;64313;51.018;13.742;2023-02-26T01:39:56;99205.59;;;-0.44;84.49
75699;BME280;64313;51.018;13.742;2023-02-26T01:42:28;99204.19;;;-0.38;83.78
75699;BME280;64313;51.018;13.742;2023-02-26T01:45:00;99211.34;;;-0.31;83.58
75699;BME280;64313;51.018;13.742;2023-02-26T01:47:47;99205.72;;;-0.36;83.54
75699;BME280;64313;51.018;13.742;2023-02-26T01:50:20;99210.72;;;-0.42;84.32
75699;BME280;64313;51.018;13.742;2023-02-26T01:55:21;99213.19;;;-0.41;84.46
75699;BME280;64313;51.018;13.742;2023-02-26T01:57:48;99221.63;;;-0.37;83.75
75699;BME280;64313;51.018;13.742;2023-02-26T02:00:16;99217.03;;;-0.35;83.92
75699;BME280;64313;51.018;13.742;2023-02-26T02:02:41;99227.81;;;-0.38;84.46
75699;BME280;64313;51.018;13.742;2023-02-26T02:05:14;99233.91;;;-0.38;84.68
75699;BME280;64313;51.018;13.742;2023-02-26T02:07:44;99241.25;;;-0.41;84.26
75699;BME280;64313;51.018;13.742;2023-02-26T02:10:10;99237.78;;;-0.42;84.78
75699;BME280;64313;51.018;13.742;2023-02-26T02:13:02;99243.59;;;-0.48;84.93
75699;BME280;64313;51.018;13.742;2023-02-26T02:15:41;99236.97;;;-0.42;84.25
75699;BME280;64313;51.018;13.742;2023-02-26T02:18:37;99254.09;;;-0.38;84.20
75699;BME280;64313;51.018;13.742;2023-02-26T02:21:27;99253.53;;;-0.42;84.70
75699;BME280;64313;51.018;13.742;2023-02-26T02:24:00;99257.69;;;-0.39;84.74
75699;BME280;64313;51.018;13.742;2023-02-26T02:26:39;99264.75;;;-0.40;84.76
75699;BME280;64313;51.018;13.742;2023-02-26T02:31:57;99270.41;;;-0.35;84.46
75699;BME280;64313;51.018;13.742;2023-02-26T02:34:31;99274.25;;;-0.39;84.40
75699;BME280;64313;51.018;13.742;2023-02-26T02:37:24;99277.88;;;-0.40;84.95
75699;BME280;64313;51.018;13.742;2023-02-26T02:40:13;99285.88;;;-0.41;85.00
75699;BME280;64313;51.018;13.742;2023-02-26T02:45:48;99289.59;;;-0.44;85.10
75699;BME280;64313;51.018;13.742;2023-02-26T02:48:22;99300.53;;;-0.39;84.97
75699;BME280;64313;51.018;13.742;2023-02-26T02:50:57;99300.81;;;-0.42;84.57
75699;BME280;64313;51.018;13.742;2023-02-26T02:53:27;99298.59;;;-0.37;84.59
75699;BME280;64313;51.018;13.742;2023-02-26T02:56:00;99304.53;;;-0.35;84.37
75699;BME280;64313;51.018;13.742;2023-02-26T02:58:51;99303.84;;;-0.37;84.75
75699;BME280;64313;51.018;13.742;2023-02-26T03:01:20;99318.91;;;-0.39;84.97
75699;BME280;64313;51.018;13.742;2023-02-26T03:04:07;99324.56;;;-0.44;85.32
75699;BME280;64313;51.018;13.742;2023-02-26T03:06:33;99319.19;;;-0.42;85.13
75699;BME280;64313;51.018;13.742;2023-02-26T03:08:59;99328.69;;;-0.41;85.63
75699;BME280;64313;51.018;13.742;2023-02-26T03:11:25;99333.25;;;-0.43;85.45
75699;BME280;64313;51.018;13.742;2023-02-26T03:13:51;99330.22;;;-0.38;85.48
75699;BME280;64313;51.018;13.742;2023-02-26T03:16:35;99337.97;;;-0.37;85.40
75699;BME280;64313;51.018;13.742;2023-02-26T03:19:19;99345.28;;;-0.31;85.15
75699;BME280;64313;51.018;13.742;2023-02-26T03:21:59;99344.47;;;-0.31;84.82
75699;BME280;64313;51.018;13.742;2023-02-26T03:25:09;99352.22;;;-0.30;84.93
75699;BME280;64313;51.018;13.742;2023-02-26T03:27:52;99352.50;;;-0.33;85.04
75699;BME280;64313;51.018;13.742;2023-02-26T03:30:34;99356.88;;;-0.33;84.98
75699;BME280;64313;51.018;13.742;2023-02-26T03:33:07;99363.25;;;-0.26;85.00
75699;BME280;64313;51.018;13.742;2023-02-26T03:35:55;99363.53;;;-0.29;84.80
75699;BME280;64313;51.018;13.742;2023-02-26T03:38:29;99360.63;;;-0.26;84.74
75699;BME280;64313;51.018;13.742;2023-02-26T03:41:02;99372.13;;;-0.27;84.94
75699;BME280;64313;51.018;13.742;2023-02-26T03:43:37;99371.41;;;-0.29;85.36
75699;BME280;64313;51.018;13.742;2023-02-26T03:46:09;99379.00;;;-0.26;84.80
75699;BME280;64313;51.018;13.742;2023-02-26T03:48:36;99383.31;;;-0.25;84.82
75699;BME280;64313;51.018;13.742;2023-02-26T03:51:06;99387.88;;;-0.17;85.10
75699;BME280;64313;51.018;13.742;2023-02-26T03:53:56;99397.13;;;-0.23;84.99
75699;BME280;64313;51.018;13.742;2023-02-26T03:56:35;99396.97;;;-0.31;84.97
75699;BME280;64313;51.018;13.742;2023-02-26T03:59:01;99395.06;;;-0.29;84.60
75699;BME280;64313;51.018;13.742;2023-02-26T04:04:25;99399.31;;;-0.28;84.72
75699;BME280;64313;51.018;13.742;2023-02-26T04:06:53;99404.56;;;-0.28;84.10
75699;BME280;64313;51.018;13.742;2023-02-26T04:09:19;99408.72;;;-0.35;84.63
75699;BME280;64313;51.018;13.742;2023-02-26T04:11:45;99413.00;;;-0.44;84.87
75699;BME280;64313;51.018;13.742;2023-02-26T04:14:13;99410.25;;;-0.33;84.93
75699;BME280;64313;51.018;13.742;2023-02-26T04:16:43;99418.13;;;-0.33;84.63
75699;BME280;64313;51.018;13.742;2023-02-26T04:19:09;99420.19;;;-0.46;84.62
75699;BME280;64313;51.018;13.742;2023-02-26T04:21:35;99423.22;;;-0.41;84.73
75699;BME280;64313;51.018;13.742;2023-02-26T04:24:03;99426.28;;;-0.36;84.63
75699;BME280;64313;51.018;13.742;2023-02-26T04:26:28;99433.31;;;-0.36;84.81
75699;BME280;64313;51.018;13.742;2023-02-26T04:28:55;99448.78;;;-0.43;85.42
75699;BME280;64313;51.018;13.742;2023-02-26T04:31:20;99450.56;;;-0.44;85.17
75699;BME280;64313;51.018;13.742;2023-02-26T04:33:45;99450.59;;;-0.34;84.55
75699;BME280;64313;51.018;13.742;2023-02-26T04:36:11;99458.75;;;-0.37;84.55
75699;BME280;64313;51.018;13.742;2023-02-26T04:38:37;99448.97;;;-0.25;84.23
75699;BME280;64313;51.018;13.742;2023-02-26T04:41:03;99453.53;;;-0.17;83.63
75699;BME280;64313;51.018;13.742;2023-02-26T04:43:29;99449.78;;;-0.25;83.29
75699;BME280;64313;51.018;13.742;2023-02-26T04:46:16;99461.69;;;-0.30;83.56
75699;BME280;64313;51.018;13.742;2023-02-26T04:48:41;99456.28;;;-0.29;84.14
75699;BME280;64313;51.018;13.742;2023-02-26T04:51:06;99467.75;;;-0.30;84.17
75699;BME280;64313;51.018;13.742;2023-02-26T04:53:32;99473.81;;;-0.39;84.30
75699;BME280;64313;51.018;13.742;2023-02-26T04:55:58;99474.09;;;-0.42;83.96
75699;BME280;64313;51.018;13.742;2023-02-26T04:58:23;99477.09;;;-0.47;84.64
75699;BME280;64313;51.018;13.742;2023-02-26T05:00:51;99481.38;;;-0.46;84.12
75699;BME280;64313;51.018;13.742;2023-02-26T05:03:20;99484.59;;;-0.42;84.37
75699;BME280;64313;51.018;13.742;2023-02-26T05:05:47;99491.38;;;-0.39;83.71
75699;BME280;64313;51.018;13.742;2023-02-26T05:08:13;99490.13;;;-0.35;83.76
75699;BME280;64313;51.018;13.742;2023-02-26T05:10:38;99503.25;;;-0.35;83.98
75699;BME280;64313;51.018;13.742;2023-02-26T05:13:04;99502.41;;;-0.36;83.90
75699;BME280;64313;51.018;13.742;2023-02-26T05:15:29;99507.41;;;-0.33;84.17
75699;BME280;64313;51.018;13.742;2023-02-26T05:17:55;99500.22;;;-0.31;83.91
75699;BME280;64313;51.018;13.742;2023-02-26T05:20:20;99508.38;;;-0.34;83.32
75699;BME280;64313;51.018;13.742;2023-02-26T05:22:46;99508.09;;;-0.31;83.38
75699;BME280;64313;51.018;13.742;2023-02-26T05:25:12;99507.16;;;-0.30;83.52
75699;BME280;64313;51.018;13.742;2023-02-26T05:27:39;99518.03;;;-0.34;83.17
75699;BME280;64313;51.018;13.742;2023-02-26T05:30:05;99512.09;;;-0.36;83.22
75699;BME280;64313;51.018;13.742;2023-02-26T05:32:33;99529.66;;;-0.37;83.26
75699;BME280;64313;51.018;13.742;2023-02-26T05:34:58;99523.69;;;-0.39;83.23
75699;BME280;64313;51.018;13.742;2023-02-26T05:37:23;99526.88;;;-0.35;83.20
75699;BME280;64313;51.018;13.742;2023-02-26T05:39:49;99530.03;;;-0.41;83.57
75699;BME280;64313;51.018;13.742;2023-02-26T05:42:14;99538.47;;;-0.38;83.17
75699;BME280;64313;51.018;13.742;2023-02-26T05:44:39;99541.69;;;-0.34;83.10
75699;BME280;64313;51.018;13.742;2023-02-26T05:47:05;99540.28;;;-0.38;82.76
75699;BME280;64313;51.018;13.742;2023-02-26T05:49:30;99546.81;;;-0.33;82.99
75699;BME280;64313;51.018;13.742;2023-02-26T05:51:56;99547.63;;;-0.32;82.58
75699;BME280;64313;51.018;13.742;2023-02-26T05:54:21;99558.25;;;-0.34;83.21
75699;BME280;64313;51.018;13.742;2023-02-26T05:56:46;99560.88;;;-0.34;83.01
75699;BME280;64313;51.018;13.742;2023-02-26T05:59:12;99566.56;;;-0.29;82.57
75699;BME280;64313;51.018;13.742;2023-02-26T06:01:37;99567.13;;;-0.35;82.92
75699;BME280;64313;51.018;13.742;2023-02-26T06:04:04;99578.13;;;-0.41;83.15
75699;BME280;64313;51.018;13.742;2023-02-26T06:06:29;99573.59;;;-0.39;83.45
75699;BME280;64313;51.018;13.742;2023-02-26T06:08:55;99585.06;;;-0.40;83.46
75699;BME280;64313;51.018;13.742;2023-02-26T06:11:21;99583.25;;;-0.39;83.19
75699;BME280;64313;51.018;13.742;2023-02-26T06:13:47;99588.56;;;-0.30;83.01
75699;BME280;64313;51.018;13.742;2023-02-26T06:16:13;99585.22;;;-0.32;83.13
75699;BME280;64313;51.018;13.742;2023-02-26T06:18:38;99595.84;;;-0.33;83.16
75699;BME280;64313;51.018;13.742;2023-02-26T06:21:04;99604.44;;;-0.31;83.05
75699;BME280;64313;51.018;13.742;2023-02-26T06:23:29;99610.50;;;-0.31;82.47
75699;BME280;64313;51.018;13.742;2023-02-26T06:25:56;99608.63;;;-0.19;82.52
75699;BME280;64313;51.018;13.742;2023-02-26T06:28:23;99620.13;;;-0.20;82.06
75699;BME280;64313;51.018;13.742;2023-02-26T06:30:48;99625.16;;;-0.28;82.18
75699;BME280;64313;51.018;13.742;2023-02-26T06:33:15;99626.25;;;-0.31;82.83
75699;BME280;64313;51.018;13.742;2023-02-26T06:35:41;99640.88;;;-0.38;83.04
75699;BME280;64313;51.018;13.742;2023-02-26T06:38:06;99637.03;;;-0.34;82.63
75699;BME280;64313;51.018;13.742;2023-02-26T06:40:32;99635.94;;;-0.31;82.62
75699;BME280;64313;51.018;13.742;2023-02-26T06:42:57;99640.81;;;-0.27;82.88
75699;BME280;64313;51.018;13.742;2023-02-26T06:45:23;99644.25;;;-0.26;82.46
75699;BME280;64313;51.018;13.742;2023-02-26T06:47:49;99656.63;;;-0.38;82.55
75699;BME280;64313;51.018;13.742;2023-02-26T06:50:15;99649.84;;;-0.40;82.93
75699;BME280;64313;51.018;13.742;2023-02-26T06:52:40;99654.31;;;-0.31;82.57
75699;BME280;64313;51.018;13.742;2023-02-26T06:55:07;99654.09;;;-0.18;81.63
75699;BME280;64313;51.018;13.742;2023-02-26T06:57:33;99669.69;;;-0.27;82.32
75699;BME280;64313;51.018;13.742;2023-02-26T06:59:58;99670.13;;;-0.22;82.14
75699;BME280;64313;51.018;13.742;2023-02-26T07:02:25;99673.16;;;-0.26;82.30
75699;BME280;64313;51.018;13.742;2023-02-26T07:04:50;99683.88;;;-0.39;82.69
75699;BME280;64313;51.018;13.742;2023-02-26T07:07:16;99681.25;;;-0.39;83.20
75699;BME280;64313;51.018;13.742;2023-02-26T07:09:41;99690.78;;;-0.38;83.27
75699;BME280;64313;51.018;13.742;2023-02-26T07:12:07;99693.41;;;-0.38;83.38
75699;BME280;64313;51.018;13.742;2023-02-26T07:14:33;99695.53;;;-0.32;83.22
75699;BME280;64313;51.018;13.742;2023-02-26T07:16:59;99699.94;;;-0.32;83.17
75699;BME280;64313;51.018;13.742;2023-02-26T07:19:25;99704.09;;;-0.30;82.79
75699;BME280;64313;51.018;13.742;2023-02-26T07:21:50;99718.44;;;-0.34;83.17
75699;BME280;64313;51.018;13.742;2023-02-26T07:24:15;99714.47;;;-0.28;82.39
75699;BME280;64313;51.018;13.742;2023-02-26T07:26:41;99721.47;;;-0.38;82.76
75699;BME280;64313;51.018;13.742;2023-02-26T07:29:06;99728.94;;;-0.34;83.26
75699;BME280;64313;51.018;13.742;2023-02-26T07:31:31;99726.78;;;-0.29;82.83
75699;BME280;64313;51.018;13.742;2023-02-26T07:33:57;99729.53;;;-0.30;83.21
75699;BME280;64313;51.018;13.742;2023-02-26T07:36:22;99731.63;;;-0.24;82.51
75699;BME280;64313;51.018;13.742;2023-02-26T07:38:48;99734.91;;;-0.32;82.84
75699;BME280;64313;51.018;13.742;2023-02-26T07:41:13;99735.09;;;-0.24;83.14
75699;BME280;64313;51.018;13.742;2023-02-26T07:43:39;99738.69;;;-0.25;82.87
75699;BME280;64313;51.018;13.742;2023-02-26T07:46:04;99744.22;;;-0.28;82.82
75699;BME280;64313;51.018;13.742;2023-02-26T07:48:29;99738.81;;;-0.26;82.97
75699;BME280;64313;51.018;13.742;2023-02-26T07:50:55;99748.09;;;-0.22;82.24
75699;BME280;64313;51.018;13.742;2023-02-26T07:53:21;99754.75;;;-0.18;82.18
75699;BME280;64313;51.018;13.742;2023-02-26T07:55:46;99749.25;;;-0.15;82.36
75699;BME280;64313;51.018;13.742;2023-02-26T07:58:12;99756.28;;;-0.15;82.73
75699;BME280;64313;51.018;13.742;2023-02-26T08:00:37;99754.75;;;-0.18;82.83
75699;BME280;64313;51.018;13.742;2023-02-26T08:03:02;99762.78;;;-0.19;83.23
75699;BME280;64313;51.018;13.742;2023-02-26T08:05:28;99766.34;;;-0.20;83.20
75699;BME280;64313;51.018;13.742;2023-02-26T08:07:54;99772.44;;;-0.20;82.86
75699;BME280;64313;51.018;13.742;2023-02-26T08:10:19;99775.53;;;-0.15;82.77
75699;BME280;64313;51.018;13.742;2023-02-26T08:12:44;99773.19;;;-0.08;82.28
75699;BME280;64313;51.018;13.742;2023-02-26T08:15:10;99776.78;;;-0.09;82.36
75699;BME280;64313;51.018;13.742;2023-02-26T08:17:40;99770.84;;;-0.11;82.30
75699;BME280;64313;51.018;13.742;2023-02-26T08:20:06;99782.63;;;-0.06;82.10
75699;BME280;64313;51.018;13.742;2023-02-26T08:22:32;99788.41;;;-0.12;82.71
75699;BME280;64313;51.018;13.742;2023-02-26T08:24:58;99792.41;;;-0.08;82.67
75699;BME280;64313;51.018;13.742;2023-02-26T08:27:23;99795.19;;;-0.09;82.60
75699;BME280;64313;51.018;13.742;2023-02-26T08:29:48;99795.69;;;-0.15;82.56
75699;BME280;64313;51.018;13.742;2023-02-26T08:32:15;99803.00;;;-0.19;83.10
75699;BME280;64313;51.018;13.742;2023-02-26T08:34:41;99809.91;;;-0.18;82.67
75699;BME280;64313;51.018;13.742;2023-02-26T08:37:07;99812.41;;;-0.16;82.16
75699;BME280;64313;51.018;13.742;2023-02-26T08:39:35;99817.41;;;-0.13;82.84
75699;BME280;64313;51.018;13.742;2023-02-26T08:42:06;99823.91;;;-0.17;82.40
75699;BME280;64313;51.018;13.742;2023-02-26T08:44:32;99823.38;;;-0.11;82.60
75699;BME280;64313;51.018;13.742;2023-02-26T08:46:57;99821.31;;;-0.08;83.27
75699;BME280;64313;51.018;13.742;2023-02-26T08:49:23;99825.75;;;-0.08;82.65
75699;BME280;64313;51.018;13.742;2023-02-26T08:51:49;99830.06;;;-0.07;82.87
75699;BME280;64313;51.018;13.742;2023-02-26T08:54:14;99826.44;;;-0.06;82.93
75699;BME280;64313;51.018;13.742;2023-02-26T08:56:39;99833.69;;;0.02;82.56
75699;BME280;64313;51.018;13.742;2023-02-26T08:59:05;99843.38;;;0.01;82.68
75699;BME280;64313;51.018;13.742;2023-02-26T09:01:31;99849.06;;;0.06;82.34
75699;BME280;64313;51.018;13.742;2023-02-26T09:03:58;99853.13;;;0.10;82.35
75699;BME280;64313;51.018;13.742;2023-02-26T09:06:23;99854.78;;;0.11;82.04
75699;BME280;64313;51.018;13.742;2023-02-26T09:08:49;99855.75;;;0.10;82.50
75699;BME280;64313;51.018;13.742;2023-02-26T09:11:14;99852.84;;;0.13;82.83
75699;BME280;64313;51.018;13.742;2023-02-26T09:13:40;99865.63;;;0.18;81.98
75699;BME280;64313;51.018;13.742;2023-02-26T09:16:06;99871.97;;;0.15;81.83
75699;BME280;64313;51.018;13.742;2023-02-26T09:18:33;99875.69;;;0.13;82.05
75699;BME280;64313;51.018;13.742;2023-02-26T09:20:58;99874.00;;;0.12;82.18
75699;BME280;64313;51.018;13.742;2023-02-26T09:23:23;99888.81;;;0.13;81.39
75699;BME280;64313;51.018;13.742;2023-02-26T09:25:53;99888.94;;;0.11;82.61
75699;BME280;64313;51.018;13.742;2023-02-26T09:28:20;99891.03;;;0.17;82.03
75699;BME280;64313;51.018;13.742;2023-02-26T09:30:45;99896.81;;;0.11;81.71
75699;BME280;64313;51.018;13.742;2023-02-26T09:33:11;99897.84;;;0.20;81.55
75699;BME280;64313;51.018;13.742;2023-02-26T09:35:36;99903.44;;;0.27;81.01
75699;BME280;64313;51.018;13.742;2023-02-26T09:38:02;99899.44;;;0.32;81.19
75699;BME280;64313;51.018;13.742;2023-02-26T09:40:39;99909.84;;;0.34;80.99
75699;BME280;64313;51.018;13.742;2023-02-26T09:43:29;99911.38;;;0.36;80.48
75699;BME280;64313;51.018;13.742;2023-02-26T09:46:23;99910.22;;;0.29;81.49
75699;BME280;64313;51.018;13.742;2023-02-26T09:49:01;99917.03;;;0.32;81.03
75699;BME280;64313;51.018;13.742;2023-02-26T09:51:29;99917.72;;;0.34;81.39
75699;BME280;64313;51.018;13.742;2023-02-26T09:53:55;99927.88;;;0.38;80.89
75699;BME280;64313;51.018;13.742;2023-02-26T09:56:25;99920.44;;;0.43;80.79
75699;BME280;64313;51.018;13.742;2023-02-26T09:58:52;99924.72;;;0.45;80.52
75699;BME280;64313;51.018;13.742;2023-02-26T10:01:37;99924.16;;;0.41;80.85
75699;BME280;64313;51.018;13.742;2023-02-26T10:04:19;99932.47;;;0.46;80.21
75699;BME280;64313;51.018;13.742;2023-02-26T10:10:00;99948.88;;;0.59;79.94
75699;BME280;64313;51.018;13.742;2023-02-26T10:12:27;99944.06;;;0.64;79.92
75699;BME280;64313;51.018;13.742;2023-02-26T10:15:25;99948.94;;;0.69;79.39
75699;BME280;64313;51.018;13.742;2023-02-26T10:18:11;99946.31;;;0.69;78.58
75699;BME280;64313;51.018;13.742;2023-02-26T10:20:54;99960.81;;;0.63;78.02
75699;BME280;64313;51.018;13.742;2023-02-26T10:26:38;99971.34;;;0.63;77.58
75699;BME280;64313;51.018;13.742;2023-02-26T10:29:19;99975.06;;;0.61;78.69
75699;BME280;64313;51.018;13.742;2023-02-26T10:32:11;99978.38;;;0.63;78.74
75699;BME280;64313;51.018;13.742;2023-02-26T10:34:53;99981.06;;;0.73;78.07
75699;BME280;64313;51.018;13.742;2023-02-26T10:37:45;99983.53;;;0.64;77.58
75699;BME280;64313;51.018;13.742;2023-02-26T10:40:41;99993.47;;;0.61;78.23
75699;BME280;64313;51.018;13.742;2023-02-26T10:43:17;99992.00;;;0.68;77.91
75699;BME280;64313;51.018;13.742;2023-02-26T10:46:13;100000.84;;;0.67;77.60
75699;BME280;64313;51.018;13.742;2023-02-26T10:48:54;100001.00;;;0.66;78.01
75699;BME280;64313;51.018;13.742;2023-02-26T10:51:28;100001.00;;;0.66;78.12
75699;BME280;64313;51.018;13.742;2023-02-26T10:56:36;100006.88;;;0.79;77.27
75699;BME280;64313;51.018;13.742;2023-02-26T10:59:02;100005.47;;;0.75;77.04
75699;BME280;64313;51.018;13.742;2023-02-26T11:01:29;100005.47;;;0.75;77.66
75699;BME280;64313;51.018;13.742;2023-02-26T11:04:00;100007.34;;;0.84;76.63
75699;BME280;64313;51.018;13.742;2023-02-26T11:06:28;100002.38;;;0.91;77.49
75699;BME280;64313;51.018;13.742;2023-02-26T11:08:56;100001.53;;;0.90;76.71
75699;BME280;64313;51.018;13.742;2023-02-26T11:11:44;100016.13;;;0.94;77.32
75699;BME280;64313;51.018;13.742;2023-02-26T11:14:10;99999.94;;;0.99;75.22
75699;BME280;64313;51.018;13.742;2023-02-26T11:16:42;99997.88;;;1.02;76.01
75699;BME280;64313;51.018;13.742;2023-02-26T11:19:12;100009.44;;;1.11;75.82
75699;BME280;64313;51.018;13.742;2023-02-26T11:21:40;100001.69;;;1.19;75.79
75699;BME280;64313;51.018;13.742;2023-02-26T11:24:17;100002.53;;;1.20;74.83
75699;BME280;64313;51.018;13.742;2023-02-26T11:26:46;100007.13;;;1.27;75.41
75699;BME280;64313;51.018;13.742;2023-02-26T11:29:18;100009.38;;;1.32;75.19
75699;BME280;64313;51.018;13.742;2023-02-26T11:31:47;100011.06;;;1.43;73.75
75699;BME280;64313;51.018;13.742;2023-02-26T11:34:14;100012.97;;;1.31;73.40
75699;BME280;64313;51.018;13.742;2023-02-26T11:36:41;100019.84;;;1.22;72.93
75699;BME280;64313;51.018;13.742;2023-02-26T11:39:15;100015.16;;;1.26;72.37
75699;BME280;64313;51.018;13.742;2023-02-26T11:41:43;100026.38;;;1.28;73.00
75699;BME280;64313;51.018;13.742;2023-02-26T11:44:13;100029.41;;;1.23;73.17
75699;BME280;64313;51.018;13.742;2023-02-26T11:46:45;100025.66;;;1.16;73.87
75699;BME280;64313;51.018;13.742;2023-02-26T11:49:16;100025.69;;;1.26;73.51
75699;BME280;64313;51.018;13.742;2023-02-26T11:51:46;100022.59;;;1.21;72.35
75699;BME280;64313;51.018;13.742;2023-02-26T11:54:24;100026.34;;;1.18;73.23
75699;BME280;64313;51.018;13.742;2023-02-26T11:56:51;100017.34;;;1.21;73.82
75699;BME280;64313;51.018;13.742;2023-02-26T11:59:23;100023.19;;;1.24;74.12
75699;BME280;64313;51.018;13.742;2023-02-26T12:01:51;100025.25;;;1.21;73.76
75699;BME280;64313;51.018;13.742;2023-02-26T12:04:20;100015.69;;;1.20;74.59
75699;BME280;64313;51.018;13.742;2023-02-26T12:06:53;100024.56;;;1.28;74.21
75699;BME280;64313;51.018;13.742;2023-02-26T12:09:19;100021.81;;;1.30;73.92
75699;BME280;64313;51.018;13.742;2023-02-26T12:12:01;100018.75;;;1.25;73.82
75699;BME280;64313;51.018;13.742;2023-02-26T12:14:56;100019.31;;;1.28;74.24
75699;BME280;64313;51.018;13.742;2023-02-26T12:26:58;100043.06;;;1.38;73.58
75699;BME280;64313;51.018;13.742;2023-02-26T12:29:42;100043.06;;;1.38;73.27
75699;BME280;64313;51.018;13.742;2023-02-26T12:32:47;100044.88;;;1.38;71.58
75699;BME280;64313;51.018;13.742;2023-02-26T12:35:29;100044.59;;;1.31;71.61
75699;BME280;64313;51.018;13.742;2023-02-26T12:43:44;100052.22;;;1.34;72.83
75699;BME280;64313;51.018;13.742;2023-02-26T12:46:36;100062.88;;;1.33;73.30
75699;BME280;64313;51.018;13.742;2023-02-26T12:55:13;100055.13;;;1.31;73.32
75699;BME280;64313;51.018;13.742;2023-02-26T13:03:31;100064.78;;;1.30;73.56
75699;BME280;64313;51.018;13.742;2023-02-26T13:11:26;100065.50;;;1.33;72.62
75699;BME280;64313;51.018;13.742;2023-02-26T13:17:10;100071.47;;;1.35;73.42
75699;BME280;64313;51.018;13.742;2023-02-26T13:19:45;100079.06;;;1.28;73.36
75699;BME280;64313;51.018;13.742;2023-02-26T13:22:31;100086.25;;;1.26;73.17
75699;BME280;64313;51.018;13.742;2023-02-26T13:25:03;100072.94;;;1.27;73.27
75699;BME280;64313;51.018;13.742;2023-02-26T13:27:37;100078.66;;;1.33;73.40
75699;BME280;64313;51.018;13.742;2023-02-26T13:30:23;100076.28;;;1.29;73.51
75699;BME280;64313;51.018;13.742;2023-02-26T13:32:52;100080.59;;;1.30;73.43
75699;BME280;64313;51.018;13.742;2023-02-26T13:35:26;100084.75;;;1.33;73.49
75699;BME280;64313;51.018;13.742;2023-02-26T13:37:56;100083.66;;;1.36;73.08
75699;BME280;64313;51.018;13.742;2023-02-26T13:40:40;100085.47;;;1.35;72.44
75699;BME280;64313;51.018;13.742;2023-02-26T13:43:34;100098.13;;;1.41;71.89
75699;BME280;64313;51.018;13.742;2023-02-26T13:46:27;100097.72;;;1.46;72.26
75699;BME280;64313;51.018;13.742;2023-02-26T13:49:11;100103.69;;;1.48;72.52
75699;BME280;64313;51.018;13.742;2023-02-26T13:51:52;100108.50;;;1.43;73.46
75699;BME280;64313;51.018;13.742;2023-02-26T13:54:32;100105.44;;;1.38;73.41
75699;BME280;64313;51.018;13.742;2023-02-26T13:57:19;100101.28;;;1.35;73.97
75699;BME280;64313;51.018;13.742;2023-02-26T13:59:52;100105.38;;;1.28;73.25
75699;BME280;64313;51.018;13.742;2023-02-26T14:04:57;100112.84;;;1.23;73.62
75699;BME280;64313;51.018;13.742;2023-02-26T14:10:25;100112.91;;;1.33;73.79
75699;BME280;64313;51.018;13.742;2023-02-26T14:13:09;100117.66;;;1.39;74.73
75699;BME280;64313;51.018;13.742;2023-02-26T14:18:50;100118.09;;;1.44;74.39
75699;BME280;64313;51.018;13.742;2023-02-26T14:26:47;100096.00;;;1.35;74.83